createdAt,value
2022-11-28T00:01:19.090Z,1.91
2022-11-28T00:03:45.577Z,1.88
2022-11-28T00:06:12.352Z,1.80
2022-11-28T00:08:38.875Z,1.74
2022-11-28T00:11:08.532Z,1.68
2022-11-28T00:13:36.150Z,1.75
2022-11-28T00:16:04.966Z,1.76
2022-11-28T00:18:31.613Z,1.79
2022-11-28T00:21:10.074Z,1.85
2022-11-28T00:23:36.524Z,1.89
2022-11-28T00:26:11.655Z,1.95
2022-11-28T00:28:38.288Z,1.91
2022-11-28T00:31:05.070Z,1.92
2022-11-28T00:33:33.088Z,1.95
2022-11-28T00:36:05.882Z,1.97
2022-11-28T00:38:32.279Z,1.99
2022-11-28T00:40:59.731Z,1.99
2022-11-28T00:43:26.224Z,1.95
2022-11-28T00:45:52.674Z,1.98
2022-11-28T00:48:19.493Z,1.96
2022-11-28T00:50:46.342Z,1.92
2022-11-28T00:53:12.849Z,1.89
2022-11-28T00:55:39.982Z,1.88
2022-11-28T00:58:07.028Z,1.82
2022-11-28T01:00:34.139Z,1.83
2022-11-28T01:03:00.572Z,1.81
2022-11-28T01:05:27.000Z,1.78
2022-11-28T01:07:53.655Z,1.75
2022-11-28T01:10:21.263Z,1.73
2022-11-28T01:12:47.872Z,1.67
2022-11-28T01:15:14.492Z,1.68
2022-11-28T01:17:41.921Z,1.68
2022-11-28T01:20:09.281Z,1.63
2022-11-28T01:22:35.726Z,1.63
2022-11-28T01:25:02.161Z,1.55
2022-11-28T01:27:28.602Z,1.65
2022-11-28T01:29:55.214Z,1.62
2022-11-28T01:32:21.641Z,1.64
2022-11-28T01:34:48.069Z,1.66
2022-11-28T01:37:14.559Z,1.68
2022-11-28T01:39:40.990Z,1.68
2022-11-28T01:42:07.401Z,1.73
2022-11-28T01:44:33.851Z,1.76
2022-11-28T01:47:00.289Z,1.74
2022-11-28T01:49:34.612Z,1.73
2022-11-28T01:52:20.083Z,1.73
2022-11-28T01:54:52.249Z,1.75
2022-11-28T01:57:22.320Z,1.77
2022-11-28T01:59:58.242Z,1.80
2022-11-28T02:02:34.722Z,1.81
2022-11-28T02:05:01.294Z,1.82
2022-11-28T02:07:27.811Z,1.80
2022-11-28T02:09:54.837Z,1.80
2022-11-28T02:12:46.277Z,1.79
2022-11-28T02:15:25.408Z,1.77
2022-11-28T02:18:25.780Z,1.79
2022-11-28T02:21:04.473Z,1.77
2022-11-28T02:23:56.527Z,1.74
2022-11-28T02:26:58.472Z,1.74
2022-11-28T02:29:38.703Z,1.76
2022-11-28T02:32:25.030Z,1.77
2022-11-28T02:35:22.224Z,1.77
2022-11-28T02:38:11.561Z,1.79
2022-11-28T02:40:53.266Z,1.82
2022-11-28T02:43:33.255Z,1.84
2022-11-28T02:46:17.175Z,1.93
2022-11-28T02:49:04.408Z,1.93
2022-11-28T02:51:52.770Z,1.96
2022-11-28T02:54:21.057Z,1.99
2022-11-28T02:56:52.757Z,2.01
2022-11-28T02:59:31.316Z,2.06
2022-11-28T03:01:58.982Z,2.05
2022-11-28T03:05:02.789Z,2.07
2022-11-28T03:08:14.218Z,2.04
2022-11-28T03:10:59.228Z,2.00
2022-11-28T03:13:41.765Z,1.97
2022-11-28T03:16:22.622Z,1.96
2022-11-28T03:19:16.413Z,1.98
2022-11-28T03:21:50.933Z,1.96
2022-11-28T03:24:27.882Z,1.97
2022-11-28T03:27:19.208Z,1.97
2022-11-28T03:30:00.427Z,1.96
2022-11-28T03:32:33.771Z,1.93
2022-11-28T03:35:08.443Z,1.92
2022-11-28T03:37:40.688Z,1.95
2022-11-28T03:40:12.432Z,1.95
2022-11-28T03:42:43.560Z,1.94
2022-11-28T03:45:25.553Z,1.96
2022-11-28T03:48:06.627Z,1.95
2022-11-28T03:50:41.807Z,1.94
2022-11-28T03:53:37.594Z,1.95
2022-11-28T03:56:22.862Z,1.94
2022-11-28T03:58:59.251Z,1.94
2022-11-28T04:01:35.236Z,1.94
2022-11-28T04:04:31.658Z,1.97
2022-11-28T04:07:16.797Z,1.95
2022-11-28T04:10:00.487Z,2.00
2022-11-28T04:12:52.879Z,2.02
2022-11-28T04:15:40.865Z,2.02
2022-11-28T04:18:13.439Z,1.99
2022-11-28T04:20:46.198Z,2.00
2022-11-28T04:23:16.993Z,2.00
2022-11-28T04:25:50.904Z,2.02
2022-11-28T04:28:22.344Z,2.03
2022-11-28T04:30:50.212Z,2.03
2022-11-28T04:33:20.877Z,1.97
2022-11-28T04:35:53.224Z,2.00
2022-11-28T04:38:22.691Z,1.99
2022-11-28T04:41:18.396Z,1.97
2022-11-28T04:43:52.080Z,1.96
2022-11-28T04:46:25.173Z,1.96
2022-11-28T04:48:51.736Z,1.94
2022-11-28T04:51:27.384Z,1.92
2022-11-28T04:54:19.915Z,1.91
2022-11-28T04:57:01.462Z,1.91
2022-11-28T04:59:30.248Z,1.91
2022-11-28T05:01:58.604Z,1.90
2022-11-28T05:04:25.303Z,1.93
2022-11-28T05:07:02.297Z,1.87
2022-11-28T05:09:28.735Z,1.92
2022-11-28T05:11:55.200Z,1.89
2022-11-28T05:14:22.188Z,1.82
2022-11-28T05:16:48.831Z,1.87
2022-11-28T05:19:15.869Z,1.90
2022-11-28T05:21:42.454Z,1.94
2022-11-28T05:24:09.391Z,1.94
2022-11-28T05:26:35.894Z,1.92
2022-11-28T05:29:02.545Z,1.90
2022-11-28T05:31:29.294Z,1.97
2022-11-28T05:33:56.013Z,1.93
2022-11-28T05:36:22.975Z,2.01
2022-11-28T05:38:50.325Z,2.04
2022-11-28T05:41:26.253Z,2.08
2022-11-28T05:43:53.260Z,2.09
2022-11-28T05:46:20.160Z,2.09
2022-11-28T05:48:46.693Z,2.11
2022-11-28T05:51:13.201Z,2.17
2022-11-28T05:53:39.610Z,2.21
2022-11-28T05:56:11.146Z,2.25
2022-11-28T05:58:37.693Z,2.29
2022-11-28T06:01:13.953Z,2.33
2022-11-28T06:03:41.493Z,2.35
2022-11-28T06:06:20.494Z,2.42
2022-11-28T06:08:48.779Z,2.38
2022-11-28T06:11:16.074Z,2.41
2022-11-28T06:13:43.532Z,2.44
2022-11-28T06:16:11.904Z,2.41
2022-11-28T06:18:39.852Z,2.47
2022-11-28T06:21:09.538Z,2.49
2022-11-28T06:23:36.859Z,2.52
2022-11-28T06:26:08.467Z,2.51
2022-11-28T06:28:35.521Z,2.55
2022-11-28T06:31:02.375Z,2.57
2022-11-28T06:33:29.592Z,2.55
2022-11-28T06:36:00.963Z,2.46
2022-11-28T06:38:28.028Z,2.48
2022-11-28T06:40:59.900Z,2.42
2022-11-28T06:43:26.931Z,2.40
2022-11-28T06:45:53.652Z,2.37
2022-11-28T06:48:20.594Z,2.31
2022-11-28T06:50:47.646Z,2.31
2022-11-28T06:53:14.576Z,2.32
2022-11-28T06:55:41.362Z,2.33
2022-11-28T06:58:07.874Z,2.35
2022-11-28T07:00:35.102Z,2.41
2022-11-28T07:03:01.516Z,2.42
2022-11-28T07:05:28.619Z,2.41
2022-11-28T07:07:55.054Z,2.41
2022-11-28T07:10:22.183Z,2.39
2022-11-28T07:12:54.079Z,2.41
2022-11-28T07:15:20.617Z,2.42
2022-11-28T07:17:47.049Z,2.44
2022-11-28T07:20:13.920Z,2.47
2022-11-28T07:22:40.358Z,2.48
2022-11-28T07:25:07.415Z,2.49
2022-11-28T07:27:34.068Z,2.47
2022-11-28T07:30:00.486Z,2.44
2022-11-28T07:32:26.949Z,2.43
2022-11-28T07:34:53.838Z,2.46
2022-11-28T07:37:20.368Z,2.48
2022-11-28T07:39:47.484Z,2.50
2022-11-28T07:42:13.936Z,2.52
2022-11-28T07:44:40.774Z,2.53
2022-11-28T07:47:07.223Z,2.58
2022-11-28T07:49:33.632Z,2.58
2022-11-28T07:52:01.086Z,2.60
2022-11-28T07:54:27.496Z,2.59
2022-11-28T07:59:40.735Z,2.69
2022-11-28T08:02:09.045Z,2.74
2022-11-28T08:04:36.679Z,2.78
2022-11-28T08:07:03.216Z,2.79
2022-11-28T08:09:31.576Z,2.83
2022-11-28T08:11:58.681Z,2.86
2022-11-28T08:14:25.310Z,2.89
2022-11-28T08:16:52.388Z,2.89
2022-11-28T08:19:22.951Z,2.91
2022-11-28T08:21:51.096Z,2.90
2022-11-28T08:24:17.572Z,2.89
2022-11-28T08:26:44.047Z,2.90
2022-11-28T08:29:10.979Z,2.89
2022-11-28T08:31:38.708Z,2.82
2022-11-28T08:34:08.499Z,2.96
2022-11-28T08:36:35.031Z,2.99
2022-11-28T08:39:22.765Z,2.97
2022-11-28T08:41:49.782Z,2.99
2022-11-28T08:44:16.296Z,3.04
2022-11-28T08:46:42.750Z,3.07
2022-11-28T08:49:09.181Z,3.07
2022-11-28T08:51:36.508Z,3.07
2022-11-28T08:54:02.999Z,3.08
2022-11-28T08:56:29.438Z,3.09
2022-11-28T08:58:55.996Z,3.10
2022-11-28T09:01:26.766Z,3.12
2022-11-28T09:03:54.726Z,3.16
2022-11-28T09:06:22.291Z,3.17
2022-11-28T09:08:50.120Z,3.19
2022-11-28T09:11:18.395Z,3.17
2022-11-28T09:13:45.134Z,3.21
2022-11-28T09:16:12.616Z,3.24
2022-11-28T09:18:39.048Z,3.26
2022-11-28T09:21:11.707Z,3.30
2022-11-28T09:23:41.040Z,3.33
2022-11-28T09:26:12.648Z,3.28
2022-11-28T09:28:39.039Z,3.28
2022-11-28T09:31:07.516Z,3.30
2022-11-28T09:33:35.069Z,3.33
2022-11-28T09:36:10.452Z,3.35
2022-11-28T09:38:37.342Z,3.40
2022-11-28T09:41:16.603Z,3.42
2022-11-28T09:43:44.943Z,3.43
2022-11-28T09:46:17.903Z,3.43
2022-11-28T09:48:52.029Z,3.38
2022-11-28T09:51:31.242Z,3.40
2022-11-28T09:54:34.745Z,3.46
2022-11-28T09:57:03.638Z,3.43
2022-11-28T09:59:30.507Z,3.44
2022-11-28T10:02:21.906Z,3.42
2022-11-28T10:04:59.386Z,3.44
2022-11-28T10:07:33.077Z,3.49
2022-11-28T10:10:33.579Z,3.52
2022-11-28T10:13:18.805Z,3.54
2022-11-28T10:16:13.143Z,3.56
2022-11-28T10:18:54.679Z,3.61
2022-11-28T10:21:31.221Z,3.66
2022-11-28T10:24:05.891Z,3.68
2022-11-28T10:26:37.082Z,3.69
2022-11-28T10:29:27.581Z,3.73
2022-11-28T10:31:57.391Z,3.77
2022-11-28T10:34:31.163Z,3.83
2022-11-28T10:37:03.425Z,3.89
2022-11-28T10:39:29.867Z,3.93
2022-11-28T10:42:13.695Z,4.01
2022-11-28T10:44:56.337Z,4.02
2022-11-28T10:47:41.183Z,4.04
2022-11-28T10:50:33.664Z,4.05
2022-11-28T10:53:09.003Z,4.10
2022-11-28T10:55:58.954Z,4.13
2022-11-28T10:58:51.300Z,4.17
2022-11-28T11:01:17.876Z,4.21
2022-11-28T11:03:44.516Z,4.26
2022-11-28T11:06:11.089Z,4.32
2022-11-28T11:08:39.611Z,4.38
2022-11-28T11:11:18.740Z,4.42
2022-11-28T11:14:09.411Z,4.50
2022-11-28T11:16:55.785Z,4.56
2022-11-28T11:19:36.886Z,4.56
2022-11-28T11:22:12.497Z,4.59
2022-11-28T11:24:38.933Z,4.60
2022-11-28T11:27:25.639Z,4.61
2022-11-28T11:29:53.353Z,4.62
2022-11-28T11:32:25.110Z,4.66
2022-11-28T11:34:51.806Z,4.69
2022-11-28T11:37:20.617Z,4.69
2022-11-28T11:39:51.842Z,4.70
2022-11-28T11:42:24.837Z,4.75
2022-11-28T11:44:51.777Z,4.77
2022-11-28T11:47:19.156Z,4.84
2022-11-28T11:49:49.651Z,4.91
2022-11-28T11:52:24.210Z,4.99
2022-11-28T11:54:59.403Z,5.09
2022-11-28T11:57:36.937Z,5.15
2022-11-28T12:00:10.846Z,5.20
2022-11-28T12:02:45.709Z,5.22
2022-11-28T12:05:21.208Z,5.31
2022-11-28T12:07:58.754Z,5.37
2022-11-28T12:10:29.711Z,5.38
2022-11-28T12:12:56.772Z,5.42
2022-11-28T12:15:59.193Z,5.47
2022-11-28T12:18:51.551Z,5.57
2022-11-28T12:22:12.992Z,5.64
2022-11-28T12:24:59.568Z,5.66
2022-11-28T12:27:41.240Z,5.70
2022-11-28T12:30:24.776Z,5.75
2022-11-28T12:33:05.380Z,5.81
2022-11-28T12:35:39.946Z,5.87
2022-11-28T12:38:20.808Z,5.94
2022-11-28T12:41:27.517Z,6.00
2022-11-28T12:44:09.032Z,6.01
2022-11-28T12:46:49.890Z,5.94
2022-11-28T12:49:41.199Z,6.04
2022-11-28T12:52:45.667Z,6.05
2022-11-28T12:55:36.837Z,6.07
2022-11-28T12:58:18.693Z,6.12
2022-11-28T13:01:17.066Z,6.13
2022-11-28T13:04:06.544Z,6.14
2022-11-28T13:06:56.717Z,6.16
2022-11-28T13:09:31.651Z,6.18
2022-11-28T13:12:22.532Z,6.21
2022-11-28T13:14:58.884Z,6.22
2022-11-28T13:17:40.957Z,6.23
2022-11-28T13:20:52.866Z,6.23
2022-11-28T13:23:26.758Z,6.19
2022-11-28T13:26:07.802Z,6.14
2022-11-28T13:28:54.698Z,6.11
2022-11-28T13:32:01.704Z,6.08
2022-11-28T13:34:29.927Z,6.04
2022-11-28T13:40:07.649Z,5.97
2022-11-28T13:43:12.988Z,5.93
2022-11-28T13:45:44.400Z,5.88
2022-11-28T13:48:49.966Z,5.82
2022-11-28T13:51:19.316Z,5.79
2022-11-28T13:53:49.480Z,5.79
2022-11-28T13:56:24.944Z,5.82
2022-11-28T13:59:00.709Z,5.82
2022-11-28T14:01:44.264Z,5.81
2022-11-28T14:04:17.318Z,5.80
2022-11-28T14:06:52.257Z,5.80
2022-11-28T14:09:36.908Z,5.82
2022-11-28T14:12:29.787Z,5.81
2022-11-28T14:15:08.420Z,5.82
2022-11-28T14:17:50.905Z,5.76
2022-11-28T14:20:36.398Z,5.72
2022-11-28T14:23:41.645Z,5.65
2022-11-28T14:26:32.008Z,5.55
2022-11-28T14:28:59.143Z,5.52
2022-11-28T14:31:31.750Z,5.47
2022-11-28T14:34:03.545Z,5.39
2022-11-28T14:36:36.127Z,5.39
2022-11-28T14:39:16.272Z,5.32
2022-11-28T14:42:02.620Z,5.27
2022-11-28T14:44:52.859Z,5.23
2022-11-28T14:47:31.986Z,5.19
2022-11-28T14:50:04.467Z,5.16
2022-11-28T14:52:39.828Z,5.11
2022-11-28T14:55:08.058Z,5.08
2022-11-28T14:57:37.686Z,5.02
2022-11-28T15:00:16.379Z,4.99
2022-11-28T15:03:12.512Z,4.95
2022-11-28T15:05:47.704Z,4.92
2022-11-28T15:08:58.932Z,4.88
2022-11-28T15:11:58.713Z,4.85
2022-11-28T15:14:28.705Z,4.81
2022-11-28T15:17:00.377Z,4.79
2022-11-28T15:19:31.919Z,4.77
2022-11-28T15:22:01.075Z,4.74
2022-11-28T15:24:27.522Z,4.74
2022-11-28T15:26:57.764Z,4.71
2022-11-28T15:29:27.238Z,4.68
2022-11-28T15:31:57.088Z,4.66
2022-11-28T15:34:27.432Z,4.60
2022-11-28T15:36:56.207Z,4.59
2022-11-28T15:39:34.959Z,4.58
2022-11-28T15:42:04.620Z,4.55
2022-11-28T15:44:32.196Z,4.52
2022-11-28T15:46:58.782Z,4.53
2022-11-28T15:49:31.747Z,4.52
2022-11-28T15:52:01.250Z,4.51
2022-11-28T15:54:41.727Z,4.51
2022-11-28T15:57:20.321Z,4.51
2022-11-28T15:59:47.245Z,4.53
2022-11-28T16:02:30.619Z,4.52
2022-11-28T16:05:20.945Z,4.53
2022-11-28T16:07:50.178Z,4.55
2022-11-28T16:10:21.888Z,4.57
2022-11-28T16:12:48.964Z,4.57
2022-11-28T16:15:20.601Z,4.60
2022-11-28T16:17:47.214Z,4.55
2022-11-28T16:20:29.764Z,4.58
2022-11-28T16:22:59.516Z,4.55
2022-11-28T16:25:27.528Z,4.54
2022-11-28T16:27:57.210Z,4.54
2022-11-28T16:30:24.053Z,4.56
2022-11-28T16:32:52.292Z,4.54
2022-11-28T16:35:38.776Z,4.55
2022-11-28T16:38:18.841Z,4.53
2022-11-28T16:40:45.331Z,4.50
2022-11-28T16:43:37.528Z,4.49
2022-11-28T16:46:06.753Z,4.44
2022-11-28T16:48:38.644Z,4.40
2022-11-28T16:51:11.575Z,4.44
2022-11-28T16:53:48.239Z,4.43
2022-11-28T16:56:29.699Z,4.46
2022-11-28T16:59:02.546Z,4.47
2022-11-28T17:01:30.282Z,4.42
2022-11-28T17:03:57.707Z,4.42
2022-11-28T17:06:39.394Z,4.44
2022-11-28T17:09:09.259Z,4.41
2022-11-28T17:11:37.692Z,4.46
2022-11-28T17:14:10.160Z,4.49
2022-11-28T17:16:40.501Z,4.51
2022-11-28T17:19:07.094Z,4.53
2022-11-28T17:21:42.037Z,4.54
2022-11-28T17:24:17.139Z,4.57
2022-11-28T17:26:43.779Z,4.59
2022-11-28T17:29:12.518Z,4.58
2022-11-28T17:31:42.144Z,4.55
2022-11-28T17:34:24.025Z,4.52
2022-11-28T17:36:51.226Z,4.51
2022-11-28T17:39:19.063Z,4.51
2022-11-28T17:41:46.923Z,4.50
2022-11-28T17:44:24.891Z,4.51
2022-11-28T17:46:52.820Z,4.49
2022-11-28T17:49:20.123Z,4.49
2022-11-28T17:51:48.600Z,4.50
2022-11-28T17:54:17.746Z,4.52
2022-11-28T17:56:54.296Z,4.54
2022-11-28T17:59:23.674Z,4.56
2022-11-28T18:01:50.510Z,4.58
2022-11-28T18:04:22.996Z,4.58
2022-11-28T18:06:49.781Z,4.62
2022-11-28T18:09:16.340Z,4.65
2022-11-28T18:11:43.543Z,4.67
2022-11-28T18:14:10.171Z,4.69
2022-11-28T18:16:39.554Z,4.65
2022-11-28T18:19:06.301Z,4.69
2022-11-28T18:21:33.024Z,4.70
2022-11-28T18:23:59.580Z,4.73
2022-11-28T18:26:26.492Z,4.74
2022-11-28T18:28:53.982Z,4.70
2022-11-28T18:31:23.445Z,4.75
2022-11-28T18:33:50.146Z,4.76
2022-11-28T18:36:22.604Z,4.77
2022-11-28T18:38:49.146Z,4.79
2022-11-28T18:41:17.648Z,4.82
2022-11-28T18:43:45.157Z,4.80
2022-11-28T18:46:19.050Z,4.84
2022-11-28T18:48:47.185Z,4.84
2022-11-28T18:51:18.135Z,4.84
2022-11-28T18:53:45.451Z,4.82
2022-11-28T18:56:13.179Z,4.82
2022-11-28T18:58:42.362Z,4.82
2022-11-28T19:01:15.039Z,4.83
2022-11-28T19:03:42.567Z,4.82
2022-11-28T19:06:12.052Z,4.83
2022-11-28T19:08:39.422Z,4.78
2022-11-28T19:11:09.609Z,4.74
2022-11-28T19:13:37.054Z,4.73
2022-11-28T19:16:07.832Z,4.72
2022-11-28T19:18:36.088Z,4.72
2022-11-28T19:21:06.823Z,4.75
2022-11-28T19:23:33.985Z,4.78
2022-11-28T19:26:04.908Z,4.78
2022-11-28T19:28:31.435Z,4.75
2022-11-28T19:31:08.116Z,4.79
2022-11-28T19:33:35.037Z,4.80
2022-11-28T19:36:06.916Z,4.79
2022-11-28T19:38:34.811Z,4.84
2022-11-28T19:41:12.372Z,4.86
2022-11-28T19:43:39.002Z,4.86
2022-11-28T19:46:06.212Z,4.87
2022-11-28T19:48:35.201Z,4.87
2022-11-28T19:51:03.811Z,4.86
2022-11-28T19:53:32.216Z,4.85
2022-11-28T19:56:03.502Z,4.88
2022-11-28T19:58:31.535Z,4.84
2022-11-28T20:01:10.439Z,4.79
2022-11-28T20:03:38.616Z,4.75
2022-11-28T20:06:20.352Z,4.72
2022-11-28T20:08:48.886Z,4.70
2022-11-28T20:11:23.623Z,4.67
2022-11-28T20:13:55.293Z,4.64
2022-11-28T20:16:21.876Z,4.63
2022-11-28T20:18:48.400Z,4.60
2022-11-28T20:21:17.792Z,4.59
2022-11-28T20:23:55.821Z,4.60
2022-11-28T20:26:26.186Z,4.57
2022-11-28T20:28:55.580Z,4.57
2022-11-28T20:31:36.412Z,4.57
2022-11-28T20:34:05.994Z,4.55
2022-11-28T20:36:34.224Z,4.53
2022-11-28T20:39:01.106Z,4.49
2022-11-28T20:41:28.724Z,4.50
2022-11-28T20:43:56.098Z,4.51
2022-11-28T20:46:27.056Z,4.50
2022-11-28T20:48:53.975Z,4.47
2022-11-28T20:51:24.759Z,4.49
2022-11-28T20:53:52.189Z,4.50
2022-11-28T20:56:21.544Z,4.52
2022-11-28T20:58:48.751Z,4.53
2022-11-28T21:01:17.936Z,4.39
2022-11-28T21:03:44.475Z,4.54
2022-11-28T21:06:11.133Z,4.56
2022-11-28T21:08:37.577Z,4.58
2022-11-28T21:11:25.600Z,4.62
2022-11-28T21:13:57.722Z,4.62
2022-11-28T21:16:29.144Z,4.65
2022-11-28T21:18:56.832Z,4.66
2022-11-28T21:21:26.631Z,4.68
2022-11-28T21:23:57.873Z,4.68
2022-11-28T21:26:30.251Z,4.69
2022-11-28T21:29:00.371Z,4.73
2022-11-28T21:31:30.068Z,4.73
2022-11-28T21:33:58.162Z,4.78
2022-11-28T21:36:25.433Z,4.80
2022-11-28T21:38:54.134Z,4.81
2022-11-28T21:41:21.854Z,4.83
2022-11-28T21:43:49.409Z,4.84
2022-11-28T21:46:15.955Z,4.86
2022-11-28T21:48:43.085Z,4.88
2022-11-28T21:51:18.892Z,4.88
2022-11-28T21:53:45.616Z,4.87
2022-11-28T21:56:12.562Z,4.88
2022-11-28T21:58:39.107Z,4.88
2022-11-28T22:01:11.607Z,4.87
2022-11-28T22:03:38.928Z,4.89
2022-11-28T22:06:08.732Z,4.91
2022-11-28T22:08:35.753Z,4.87
2022-11-28T22:11:08.490Z,4.93
2022-11-28T22:13:35.800Z,4.94
2022-11-28T22:16:12.231Z,4.97
2022-11-28T22:18:38.692Z,4.97
2022-11-28T22:21:22.575Z,4.99
2022-11-28T22:23:53.718Z,4.99
2022-11-28T22:26:20.605Z,4.96
2022-11-28T22:28:53.199Z,5.01
2022-11-28T22:31:20.438Z,5.02
2022-11-28T22:33:49.491Z,4.97
2022-11-28T22:36:18.811Z,5.02
2022-11-28T22:38:47.304Z,5.03
2022-11-28T22:41:24.792Z,5.04
2022-11-28T22:43:56.437Z,5.01
2022-11-28T22:46:23.225Z,4.97
2022-11-28T22:48:51.705Z,5.01
2022-11-28T22:51:21.152Z,5.03
2022-11-28T22:53:47.630Z,5.03
2022-11-28T22:56:15.489Z,5.03
2022-11-28T22:58:44.323Z,5.03
2022-11-28T23:01:14.096Z,5.05
2022-11-28T23:03:40.843Z,5.04
2022-11-28T23:06:10.424Z,5.04
2022-11-28T23:08:37.231Z,5.03
2022-11-28T23:11:09.130Z,5.02
2022-11-28T23:13:36.447Z,4.98
2022-11-28T23:16:13.091Z,4.94
2022-11-28T23:18:40.132Z,4.92
2022-11-28T23:21:07.553Z,4.94
2022-11-28T23:23:34.964Z,4.93
2022-11-28T23:26:11.116Z,4.94
2022-11-28T23:28:38.136Z,4.94
2022-11-28T23:31:22.807Z,4.96
2022-11-28T23:33:49.635Z,4.95
2022-11-28T23:36:17.372Z,4.96
2022-11-28T23:38:45.088Z,4.95
2022-11-28T23:41:11.971Z,4.96
2022-11-28T23:43:38.914Z,5.00
2022-11-28T23:46:05.582Z,4.99
2022-11-28T23:48:32.978Z,5.04
2022-11-28T23:50:59.506Z,5.07
2022-11-28T23:53:26.240Z,5.10
2022-11-28T23:55:52.684Z,5.12
2022-11-28T23:58:19.293Z,5.12
